sensor_id;sensor_type;location;lat;lon;timestamp;temperature;humidity
3727;DHT22;1879;45.876;12.300;2022-10-31T00:02:10;15.60;99.90
3727;DHT22;1879;45.876;12.300;2022-10-31T00:04:37;15.60;99.90
3727;DHT22;1879;45.876;12.300;2022-10-31T00:07:04;15.50;99.90
3727;DHT22;1879;45.876;12.300;2022-10-31T00:09:31;15.50;99.90
3727;DHT22;1879;45.876;12.300;2022-10-31T00:11:58;15.60;99.90
3727;DHT22;1879;45.876;12.300;2022-10-31T00:14:26;15.60;99.90
3727;DHT22;1879;45.876;12.300;2022-10-31T00:16:53;15.50;99.90
3727;DHT22;1879;45.876;12.300;2022-10-31T00:19:20;15.50;99.90
3727;DHT22;1879;45.876;12.300;2022-10-31T00:21:47;15.50;99.90
3727;DHT22;1879;45.876;12.300;2022-10-31T00:24:14;15.40;99.90
3727;DHT22;1879;45.876;12.300;2022-10-31T00:26:41;15.40;99.90
3727;DHT22;1879;45.876;12.300;2022-10-31T00:29:08;15.30;99.90
3727;DHT22;1879;45.876;12.300;2022-10-31T00:31:36;15.30;99.90
3727;DHT22;1879;45.876;12.300;2022-10-31T00:34:03;15.30;99.90
3727;DHT22;1879;45.876;12.300;2022-10-31T00:36:30;15.30;99.90
3727;DHT22;1879;45.876;12.300;2022-10-31T00:38:58;15.30;99.90
3727;DHT22;1879;45.876;12.300;2022-10-31T00:41:27;15.10;99.90
3727;DHT22;1879;45.876;12.300;2022-10-31T00:43:54;15.10;99.90
3727;DHT22;1879;45.876;12.300;2022-10-31T00:46:21;15.10;99.90
3727;DHT22;1879;45.876;12.300;2022-10-31T00:48:50;15.00;99.90
3727;DHT22;1879;45.876;12.300;2022-10-31T00:51:17;15.00;99.90
3727;DHT22;1879;45.876;12.300;2022-10-31T00:53:43;15.00;99.90
3727;DHT22;1879;45.876;12.300;2022-10-31T00:56:10;14.90;99.90
3727;DHT22;1879;45.876;12.300;2022-10-31T00:58:37;14.90;99.90
3727;DHT22;1879;45.876;12.300;2022-10-31T01:01:04;14.90;99.90
3727;DHT22;1879;45.876;12.300;2022-10-31T01:03:32;14.80;99.90
3727;DHT22;1879;45.876;12.300;2022-10-31T01:06:03;14.80;99.90
3727;DHT22;1879;45.876;12.300;2022-10-31T01:08:30;14.80;99.90
3727;DHT22;1879;45.876;12.300;2022-10-31T01:11:07;14.70;99.90
3727;DHT22;1879;45.876;12.300;2022-10-31T01:13:35;14.70;99.90
3727;DHT22;1879;45.876;12.300;2022-10-31T01:16:04;14.60;99.90
3727;DHT22;1879;45.876;12.300;2022-10-31T01:18:31;14.60;99.90
3727;DHT22;1879;45.876;12.300;2022-10-31T01:21:02;14.60;99.90
3727;DHT22;1879;45.876;12.300;2022-10-31T01:23:29;14.60;99.90
3727;DHT22;1879;45.876;12.300;2022-10-31T01:26:06;14.60;99.90
3727;DHT22;1879;45.876;12.300;2022-10-31T01:28:33;14.60;99.90
3727;DHT22;1879;45.876;12.300;2022-10-31T01:31:02;14.50;99.90
3727;DHT22;1879;45.876;12.300;2022-10-31T01:33:30;14.50;99.90
3727;DHT22;1879;45.876;12.300;2022-10-31T01:35:57;14.50;99.90
3727;DHT22;1879;45.876;12.300;2022-10-31T01:38:25;14.50;99.90
3727;DHT22;1879;45.876;12.300;2022-10-31T01:40:53;14.50;99.90
3727;DHT22;1879;45.876;12.300;2022-10-31T01:43:20;14.50;99.90
3727;DHT22;1879;45.876;12.300;2022-10-31T01:45:51;14.50;99.90
3727;DHT22;1879;45.876;12.300;2022-10-31T01:48:21;14.40;99.90
3727;DHT22;1879;45.876;12.300;2022-10-31T01:50:52;14.40;99.90
3727;DHT22;1879;45.876;12.300;2022-10-31T01:53:20;14.40;99.90
3727;DHT22;1879;45.876;12.300;2022-10-31T01:55:49;14.50;99.90
3727;DHT22;1879;45.876;12.300;2022-10-31T01:58:20;14.50;99.90
3727;DHT22;1879;45.876;12.300;2022-10-31T02:00:50;14.50;99.90
3727;DHT22;1879;45.876;12.300;2022-10-31T02:03:18;14.50;99.90
3727;DHT22;1879;45.876;12.300;2022-10-31T02:05:47;14.40;99.90
3727;DHT22;1879;45.876;12.300;2022-10-31T02:08:18;14.40;99.90
3727;DHT22;1879;45.876;12.300;2022-10-31T02:10:47;14.40;99.90
3727;DHT22;1879;45.876;12.300;2022-10-31T02:13:15;14.40;99.90
3727;DHT22;1879;45.876;12.300;2022-10-31T02:15:44;14.40;99.90
3727;DHT22;1879;45.876;12.300;2022-10-31T02:18:11;14.30;99.90
3727;DHT22;1879;45.876;12.300;2022-10-31T02:20:45;14.30;99.90
3727;DHT22;1879;45.876;12.300;2022-10-31T02:26:36;14.30;99.90
3727;DHT22;1879;45.876;12.300;2022-10-31T02:32:11;14.30;99.90
3727;DHT22;1879;45.876;12.300;2022-10-31T02:34:46;14.20;99.90
3727;DHT22;1879;45.876;12.300;2022-10-31T02:37:23;14.20;99.90
3727;DHT22;1879;45.876;12.300;2022-10-31T02:39:56;14.20;99.90
3727;DHT22;1879;45.876;12.300;2022-10-31T02:42:29;14.20;99.90
3727;DHT22;1879;45.876;12.300;2022-10-31T02:45:05;14.10;99.90
3727;DHT22;1879;45.876;12.300;2022-10-31T02:47:37;14.10;99.90
3727;DHT22;1879;45.876;12.300;2022-10-31T02:50:08;14.20;99.90
3727;DHT22;1879;45.876;12.300;2022-10-31T02:52:36;14.20;99.90
3727;DHT22;1879;45.876;12.300;2022-10-31T02:55:11;14.10;99.90
3727;DHT22;1879;45.876;12.300;2022-10-31T02:57:40;14.10;99.90
3727;DHT22;1879;45.876;12.300;2022-10-31T03:00:09;14.00;99.90
3727;DHT22;1879;45.876;12.300;2022-10-31T03:02:52;14.00;99.90
3727;DHT22;1879;45.876;12.300;2022-10-31T03:05:41;14.00;99.90
3727;DHT22;1879;45.876;12.300;2022-10-31T03:08:16;14.00;99.90
3727;DHT22;1879;45.876;12.300;2022-10-31T03:10:49;13.90;99.90
3727;DHT22;1879;45.876;12.300;2022-10-31T03:13:22;13.90;99.90
3727;DHT22;1879;45.876;12.300;2022-10-31T03:15:53;13.80;99.90
3727;DHT22;1879;45.876;12.300;2022-10-31T03:18:26;13.80;99.90
3727;DHT22;1879;45.876;12.300;2022-10-31T03:21:00;13.90;99.90
3727;DHT22;1879;45.876;12.300;2022-10-31T03:23:30;13.80;99.90
3727;DHT22;1879;45.876;12.300;2022-10-31T03:25:59;13.90;99.90
3727;DHT22;1879;45.876;12.300;2022-10-31T03:28:30;13.80;99.90
3727;DHT22;1879;45.876;12.300;2022-10-31T03:31:01;13.80;99.90
3727;DHT22;1879;45.876;12.300;2022-10-31T03:33:34;13.80;99.90
3727;DHT22;1879;45.876;12.300;2022-10-31T03:36:04;13.80;99.90
3727;DHT22;1879;45.876;12.300;2022-10-31T03:38:34;13.80;99.90
3727;DHT22;1879;45.876;12.300;2022-10-31T03:41:04;13.80;99.90
3727;DHT22;1879;45.876;12.300;2022-10-31T03:43:37;13.80;99.90
3727;DHT22;1879;45.876;12.300;2022-10-31T03:46:06;13.80;99.90
3727;DHT22;1879;45.876;12.300;2022-10-31T03:48:34;13.80;99.90
3727;DHT22;1879;45.876;12.300;2022-10-31T03:51:06;13.80;99.90
3727;DHT22;1879;45.876;12.300;2022-10-31T03:53:41;13.80;99.90
3727;DHT22;1879;45.876;12.300;2022-10-31T03:56:15;13.90;99.90
3727;DHT22;1879;45.876;12.300;2022-10-31T03:58:47;13.90;99.90
3727;DHT22;1879;45.876;12.300;2022-10-31T04:01:16;13.90;99.90
3727;DHT22;1879;45.876;12.300;2022-10-31T04:03:47;13.80;99.90
3727;DHT22;1879;45.876;12.300;2022-10-31T04:06:15;13.80;99.90
3727;DHT22;1879;45.876;12.300;2022-10-31T04:08:49;13.80;99.90
3727;DHT22;1879;45.876;12.300;2022-10-31T04:11:20;13.80;99.90
3727;DHT22;1879;45.876;12.300;2022-10-31T04:13:49;13.80;99.90
3727;DHT22;1879;45.876;12.300;2022-10-31T04:16:17;13.80;99.90
3727;DHT22;1879;45.876;12.300;2022-10-31T04:18:45;13.80;99.90
3727;DHT22;1879;45.876;12.300;2022-10-31T04:21:12;13.70;99.90
3727;DHT22;1879;45.876;12.300;2022-10-31T04:23:39;13.60;99.90
3727;DHT22;1879;45.876;12.300;2022-10-31T04:26:07;13.60;99.90
3727;DHT22;1879;45.876;12.300;2022-10-31T04:28:34;13.50;99.90
3727;DHT22;1879;45.876;12.300;2022-10-31T04:31:01;13.50;99.90
3727;DHT22;1879;45.876;12.300;2022-10-31T04:33:28;13.40;99.90
3727;DHT22;1879;45.876;12.300;2022-10-31T04:35:56;13.40;99.90
3727;DHT22;1879;45.876;12.300;2022-10-31T04:38:23;13.30;99.90
3727;DHT22;1879;45.876;12.300;2022-10-31T04:40:50;13.30;99.90
3727;DHT22;1879;45.876;12.300;2022-10-31T04:43:18;13.20;99.90
3727;DHT22;1879;45.876;12.300;2022-10-31T04:45:44;13.20;99.90
3727;DHT22;1879;45.876;12.300;2022-10-31T04:48:11;13.20;99.90
3727;DHT22;1879;45.876;12.300;2022-10-31T04:50:38;13.20;99.90
3727;DHT22;1879;45.876;12.300;2022-10-31T04:53:07;13.30;99.90
3727;DHT22;1879;45.876;12.300;2022-10-31T04:55:35;13.30;99.90
3727;DHT22;1879;45.876;12.300;2022-10-31T04:58:02;13.30;99.90
3727;DHT22;1879;45.876;12.300;2022-10-31T05:00:29;13.30;99.90
3727;DHT22;1879;45.876;12.300;2022-10-31T05:02:57;13.20;99.90
3727;DHT22;1879;45.876;12.300;2022-10-31T05:05:25;13.20;99.90
3727;DHT22;1879;45.876;12.300;2022-10-31T05:07:53;13.20;99.90
3727;DHT22;1879;45.876;12.300;2022-10-31T05:10:26;13.20;99.90
3727;DHT22;1879;45.876;12.300;2022-10-31T05:12:54;13.20;99.90
3727;DHT22;1879;45.876;12.300;2022-10-31T05:15:23;13.20;99.90
3727;DHT22;1879;45.876;12.300;2022-10-31T05:17:50;13.10;99.90
3727;DHT22;1879;45.876;12.300;2022-10-31T05:20:19;13.10;99.90
3727;DHT22;1879;45.876;12.300;2022-10-31T05:22:47;13.10;99.90
3727;DHT22;1879;45.876;12.300;2022-10-31T05:25:15;13.10;99.90
3727;DHT22;1879;45.876;12.300;2022-10-31T05:27:45;13.10;99.90
3727;DHT22;1879;45.876;12.300;2022-10-31T05:30:14;13.10;99.90
3727;DHT22;1879;45.876;12.300;2022-10-31T05:32:45;13.10;99.90
3727;DHT22;1879;45.876;12.300;2022-10-31T05:35:14;13.10;99.90
3727;DHT22;1879;45.876;12.300;2022-10-31T05:37:41;13.00;99.90
3727;DHT22;1879;45.876;12.300;2022-10-31T05:40:10;13.10;99.90
3727;DHT22;1879;45.876;12.300;2022-10-31T05:42:38;13.10;99.90
3727;DHT22;1879;45.876;12.300;2022-10-31T05:45:08;13.10;99.90
3727;DHT22;1879;45.876;12.300;2022-10-31T05:47:35;13.10;99.90
3727;DHT22;1879;45.876;12.300;2022-10-31T05:50:02;13.10;99.90
3727;DHT22;1879;45.876;12.300;2022-10-31T05:52:29;13.10;99.90
3727;DHT22;1879;45.876;12.300;2022-10-31T05:54:56;13.10;99.90
3727;DHT22;1879;45.876;12.300;2022-10-31T05:57:23;13.00;99.90
3727;DHT22;1879;45.876;12.300;2022-10-31T05:59:50;13.00;99.90
3727;DHT22;1879;45.876;12.300;2022-10-31T06:02:20;13.00;99.90
3727;DHT22;1879;45.876;12.300;2022-10-31T06:04:47;13.00;99.90
3727;DHT22;1879;45.876;12.300;2022-10-31T06:07:14;13.00;99.90
3727;DHT22;1879;45.876;12.300;2022-10-31T06:09:41;13.00;99.90
3727;DHT22;1879;45.876;12.300;2022-10-31T06:12:08;13.00;99.90
3727;DHT22;1879;45.876;12.300;2022-10-31T06:14:35;13.00;99.90
3727;DHT22;1879;45.876;12.300;2022-10-31T06:17:02;13.00;99.90
3727;DHT22;1879;45.876;12.300;2022-10-31T06:19:30;13.00;99.90
3727;DHT22;1879;45.876;12.300;2022-10-31T06:21:57;13.10;99.90
3727;DHT22;1879;45.876;12.300;2022-10-31T06:24:24;13.10;99.90
3727;DHT22;1879;45.876;12.300;2022-10-31T06:26:51;13.20;99.90
3727;DHT22;1879;45.876;12.300;2022-10-31T06:29:18;13.30;99.90
3727;DHT22;1879;45.876;12.300;2022-10-31T06:31:45;13.30;99.90
3727;DHT22;1879;45.876;12.300;2022-10-31T06:34:12;13.30;99.90
3727;DHT22;1879;45.876;12.300;2022-10-31T06:36:40;13.40;99.90
3727;DHT22;1879;45.876;12.300;2022-10-31T06:39:07;13.40;99.90
3727;DHT22;1879;45.876;12.300;2022-10-31T06:41:34;13.40;99.90
3727;DHT22;1879;45.876;12.300;2022-10-31T06:44:02;13.50;99.90
3727;DHT22;1879;45.876;12.300;2022-10-31T06:46:29;13.50;99.90
3727;DHT22;1879;45.876;12.300;2022-10-31T06:48:56;13.60;99.90
3727;DHT22;1879;45.876;12.300;2022-10-31T06:51:23;13.70;99.90
3727;DHT22;1879;45.876;12.300;2022-10-31T06:53:51;13.70;99.90
3727;DHT22;1879;45.876;12.300;2022-10-31T06:56:18;13.80;99.90
3727;DHT22;1879;45.876;12.300;2022-10-31T06:58:45;13.90;99.90
3727;DHT22;1879;45.876;12.300;2022-10-31T07:01:12;13.90;99.90
3727;DHT22;1879;45.876;12.300;2022-10-31T07:03:39;14.00;99.90
3727;DHT22;1879;45.876;12.300;2022-10-31T07:06:06;14.00;99.90
3727;DHT22;1879;45.876;12.300;2022-10-31T07:08:33;14.10;99.90
3727;DHT22;1879;45.876;12.300;2022-10-31T07:11:02;14.20;99.90
3727;DHT22;1879;45.876;12.300;2022-10-31T07:13:28;14.20;99.90
3727;DHT22;1879;45.876;12.300;2022-10-31T07:16:00;14.30;99.90
3727;DHT22;1879;45.876;12.300;2022-10-31T07:18:27;14.40;99.90
3727;DHT22;1879;45.876;12.300;2022-10-31T07:20:54;14.40;99.90
3727;DHT22;1879;45.876;12.300;2022-10-31T07:23:22;14.50;99.90
3727;DHT22;1879;45.876;12.300;2022-10-31T07:25:53;14.60;99.90
3727;DHT22;1879;45.876;12.300;2022-10-31T07:28:22;14.70;99.90
3727;DHT22;1879;45.876;12.300;2022-10-31T07:30:50;14.80;99.90
3727;DHT22;1879;45.876;12.300;2022-10-31T07:33:17;14.90;99.90
3727;DHT22;1879;45.876;12.300;2022-10-31T07:35:44;15.00;99.90
3727;DHT22;1879;45.876;12.300;2022-10-31T07:38:13;15.10;99.90
3727;DHT22;1879;45.876;12.300;2022-10-31T07:40:40;15.20;99.90
3727;DHT22;1879;45.876;12.300;2022-10-31T07:43:11;15.30;99.90
3727;DHT22;1879;45.876;12.300;2022-10-31T07:45:40;15.40;99.90
3727;DHT22;1879;45.876;12.300;2022-10-31T07:48:07;15.50;99.90
3727;DHT22;1879;45.876;12.300;2022-10-31T07:50:34;15.60;99.90
3727;DHT22;1879;45.876;12.300;2022-10-31T07:53:03;15.70;99.90
3727;DHT22;1879;45.876;12.300;2022-10-31T07:55:30;15.70;99.90
3727;DHT22;1879;45.876;12.300;2022-10-31T07:57:58;15.80;99.90
3727;DHT22;1879;45.876;12.300;2022-10-31T08:00:25;15.90;99.90
3727;DHT22;1879;45.876;12.300;2022-10-31T08:03:01;16.00;99.90
3727;DHT22;1879;45.876;12.300;2022-10-31T08:05:29;16.00;99.90
3727;DHT22;1879;45.876;12.300;2022-10-31T08:07:56;16.10;99.90
3727;DHT22;1879;45.876;12.300;2022-10-31T08:10:24;16.20;99.90
3727;DHT22;1879;45.876;12.300;2022-10-31T08:12:58;16.30;99.90
3727;DHT22;1879;45.876;12.300;2022-10-31T08:15:26;16.40;99.90
3727;DHT22;1879;45.876;12.300;2022-10-31T08:17:53;16.50;99.90
3727;DHT22;1879;45.876;12.300;2022-10-31T08:20:22;16.60;99.90
3727;DHT22;1879;45.876;12.300;2022-10-31T08:22:53;16.70;99.90
3727;DHT22;1879;45.876;12.300;2022-10-31T08:25:21;16.80;99.90
3727;DHT22;1879;45.876;12.300;2022-10-31T08:27:51;16.80;99.90
3727;DHT22;1879;45.876;12.300;2022-10-31T08:30:18;16.90;99.90
3727;DHT22;1879;45.876;12.300;2022-10-31T08:32:46;17.00;99.90
3727;DHT22;1879;45.876;12.300;2022-10-31T08:35:13;17.10;99.90
3727;DHT22;1879;45.876;12.300;2022-10-31T08:37:41;17.20;99.90
3727;DHT22;1879;45.876;12.300;2022-10-31T08:40:09;17.20;99.90
3727;DHT22;1879;45.876;12.300;2022-10-31T08:42:38;17.20;99.90
3727;DHT22;1879;45.876;12.300;2022-10-31T08:45:06;17.30;99.90
3727;DHT22;1879;45.876;12.300;2022-10-31T08:47:33;17.40;99.90
3727;DHT22;1879;45.876;12.300;2022-10-31T08:50:00;17.40;99.90
3727;DHT22;1879;45.876;12.300;2022-10-31T08:52:27;17.50;99.90
3727;DHT22;1879;45.876;12.300;2022-10-31T08:54:55;17.60;99.90
3727;DHT22;1879;45.876;12.300;2022-10-31T08:57:22;17.70;99.90
3727;DHT22;1879;45.876;12.300;2022-10-31T08:59:49;17.70;99.90
3727;DHT22;1879;45.876;12.300;2022-10-31T09:02:16;17.80;99.90
3727;DHT22;1879;45.876;12.300;2022-10-31T09:04:43;17.90;99.90
3727;DHT22;1879;45.876;12.300;2022-10-31T09:07:10;17.90;99.90
3727;DHT22;1879;45.876;12.300;2022-10-31T09:09:37;18.10;99.90
3727;DHT22;1879;45.876;12.300;2022-10-31T09:12:05;18.10;99.90
3727;DHT22;1879;45.876;12.300;2022-10-31T09:14:32;18.30;99.90
3727;DHT22;1879;45.876;12.300;2022-10-31T09:16:59;18.40;99.90
3727;DHT22;1879;45.876;12.300;2022-10-31T09:19:26;18.50;99.90
3727;DHT22;1879;45.876;12.300;2022-10-31T09:21:54;18.50;99.90
3727;DHT22;1879;45.876;12.300;2022-10-31T09:24:21;18.60;99.90
3727;DHT22;1879;45.876;12.300;2022-10-31T09:26:48;18.70;99.90
3727;DHT22;1879;45.876;12.300;2022-10-31T09:29:16;18.80;99.90
3727;DHT22;1879;45.876;12.300;2022-10-31T09:31:43;18.90;99.90
3727;DHT22;1879;45.876;12.300;2022-10-31T09:34:10;19.00;99.90
3727;DHT22;1879;45.876;12.300;2022-10-31T09:36:37;19.10;99.90
3727;DHT22;1879;45.876;12.300;2022-10-31T09:39:04;19.20;99.90
3727;DHT22;1879;45.876;12.300;2022-10-31T09:41:45;19.30;99.90
3727;DHT22;1879;45.876;12.300;2022-10-31T09:44:21;19.40;99.90
3727;DHT22;1879;45.876;12.300;2022-10-31T09:46:56;19.50;99.90
3727;DHT22;1879;45.876;12.300;2022-10-31T09:49:35;19.60;99.90
3727;DHT22;1879;45.876;12.300;2022-10-31T09:52:09;19.70;99.90
3727;DHT22;1879;45.876;12.300;2022-10-31T09:54:40;19.70;99.90
3727;DHT22;1879;45.876;12.300;2022-10-31T09:57:13;19.90;99.90
3727;DHT22;1879;45.876;12.300;2022-10-31T09:59:44;20.00;99.90
3727;DHT22;1879;45.876;12.300;2022-10-31T10:02:16;20.10;99.90
3727;DHT22;1879;45.876;12.300;2022-10-31T10:04:50;20.20;99.90
3727;DHT22;1879;45.876;12.300;2022-10-31T10:07:25;20.30;99.90
3727;DHT22;1879;45.876;12.300;2022-10-31T10:09:54;20.40;99.90
3727;DHT22;1879;45.876;12.300;2022-10-31T10:12:33;20.50;99.90
3727;DHT22;1879;45.876;12.300;2022-10-31T10:18:15;20.80;99.90
3727;DHT22;1879;45.876;12.300;2022-10-31T10:20:58;20.90;99.90
3727;DHT22;1879;45.876;12.300;2022-10-31T10:23:40;21.00;99.90
3727;DHT22;1879;45.876;12.300;2022-10-31T10:26:15;21.20;99.90
3727;DHT22;1879;45.876;12.300;2022-10-31T10:28:45;21.30;99.90
3727;DHT22;1879;45.876;12.300;2022-10-31T10:31:17;21.50;99.90
3727;DHT22;1879;45.876;12.300;2022-10-31T10:33:57;21.50;99.90
3727;DHT22;1879;45.876;12.300;2022-10-31T10:36:31;21.60;99.90
3727;DHT22;1879;45.876;12.300;2022-10-31T10:39:04;21.60;99.90
3727;DHT22;1879;45.876;12.300;2022-10-31T10:41:32;21.70;99.90
3727;DHT22;1879;45.876;12.300;2022-10-31T10:43:59;21.70;99.90
3727;DHT22;1879;45.876;12.300;2022-10-31T10:46:39;21.70;99.90
3727;DHT22;1879;45.876;12.300;2022-10-31T10:49:29;21.90;99.90
3727;DHT22;1879;45.876;12.300;2022-10-31T10:51:59;22.00;99.90
3727;DHT22;1879;45.876;12.300;2022-10-31T10:54:52;22.10;99.90
3727;DHT22;1879;45.876;12.300;2022-10-31T10:57:41;22.20;99.90
3727;DHT22;1879;45.876;12.300;2022-10-31T11:00:19;22.40;99.90
3727;DHT22;1879;45.876;12.300;2022-10-31T11:02:48;22.50;99.90
3727;DHT22;1879;45.876;12.300;2022-10-31T11:05:23;22.70;99.90
3727;DHT22;1879;45.876;12.300;2022-10-31T11:07:50;23.10;99.90
3727;DHT22;1879;45.876;12.300;2022-10-31T11:10:18;23.60;99.90
3727;DHT22;1879;45.876;12.300;2022-10-31T11:12:58;24.60;98.70
3727;DHT22;1879;45.876;12.300;2022-10-31T11:15:27;25.60;96.70
3727;DHT22;1879;45.876;12.300;2022-10-31T11:17:57;26.40;95.90
3727;DHT22;1879;45.876;12.300;2022-10-31T11:20:30;27.90;93.20
3727;DHT22;1879;45.876;12.300;2022-10-31T11:23:04;29.10;90.60
3727;DHT22;1879;45.876;12.300;2022-10-31T11:25:31;30.20;84.30
3727;DHT22;1879;45.876;12.300;2022-10-31T11:27:59;30.70;81.00
3727;DHT22;1879;45.876;12.300;2022-10-31T11:30:26;31.10;77.60
3727;DHT22;1879;45.876;12.300;2022-10-31T11:32:53;31.80;76.80
3727;DHT22;1879;45.876;12.300;2022-10-31T11:35:24;32.60;73.50
3727;DHT22;1879;45.876;12.300;2022-10-31T11:37:53;33.30;67.00
3727;DHT22;1879;45.876;12.300;2022-10-31T11:40:22;33.60;66.20
3727;DHT22;1879;45.876;12.300;2022-10-31T11:42:52;34.00;64.50
3727;DHT22;1879;45.876;12.300;2022-10-31T11:45:29;34.40;62.80
3727;DHT22;1879;45.876;12.300;2022-10-31T11:47:57;34.10;58.10
3727;DHT22;1879;45.876;12.300;2022-10-31T11:50:32;33.50;59.20
3727;DHT22;1879;45.876;12.300;2022-10-31T11:53:00;33.60;57.60
3727;DHT22;1879;45.876;12.300;2022-10-31T11:55:32;34.30;58.80
3727;DHT22;1879;45.876;12.300;2022-10-31T11:57:59;34.70;56.00
3727;DHT22;1879;45.876;12.300;2022-10-31T12:00:28;35.30;56.40
3727;DHT22;1879;45.876;12.300;2022-10-31T12:03:11;35.60;54.80
3727;DHT22;1879;45.876;12.300;2022-10-31T12:05:41;36.00;52.60
3727;DHT22;1879;45.876;12.300;2022-10-31T12:08:11;36.40;53.30
3727;DHT22;1879;45.876;12.300;2022-10-31T12:10:44;36.60;52.40
3727;DHT22;1879;45.876;12.300;2022-10-31T12:13:28;37.10;51.30
3727;DHT22;1879;45.876;12.300;2022-10-31T12:16:02;37.60;49.60
3727;DHT22;1879;45.876;12.300;2022-10-31T12:18:56;37.80;48.80
3727;DHT22;1879;45.876;12.300;2022-10-31T12:21:36;37.40;47.50
3727;DHT22;1879;45.876;12.300;2022-10-31T12:24:15;37.40;47.10
3727;DHT22;1879;45.876;12.300;2022-10-31T12:26:50;37.60;46.70
3727;DHT22;1879;45.876;12.300;2022-10-31T12:29:37;38.10;47.20
3727;DHT22;1879;45.876;12.300;2022-10-31T12:32:20;37.80;46.10
3727;DHT22;1879;45.876;12.300;2022-10-31T12:37:55;37.30;46.90
3727;DHT22;1879;45.876;12.300;2022-10-31T12:40:45;37.30;46.30
3727;DHT22;1879;45.876;12.300;2022-10-31T12:43:24;37.30;45.70
3727;DHT22;1879;45.876;12.300;2022-10-31T12:45:55;37.40;44.60
3727;DHT22;1879;45.876;12.300;2022-10-31T12:48:41;37.10;45.20
3727;DHT22;1879;45.876;12.300;2022-10-31T12:51:15;36.70;45.90
3727;DHT22;1879;45.876;12.300;2022-10-31T12:54:15;36.50;46.80
3727;DHT22;1879;45.876;12.300;2022-10-31T12:56:51;36.30;46.60
3727;DHT22;1879;45.876;12.300;2022-10-31T12:59:27;36.10;47.00
3727;DHT22;1879;45.876;12.300;2022-10-31T13:01:58;35.90;47.00
3727;DHT22;1879;45.876;12.300;2022-10-31T13:04:36;35.60;46.90
3727;DHT22;1879;45.876;12.300;2022-10-31T13:07:13;35.20;46.70
3727;DHT22;1879;45.876;12.300;2022-10-31T13:09:49;34.70;48.60
3727;DHT22;1879;45.876;12.300;2022-10-31T13:12:19;34.50;49.30
3727;DHT22;1879;45.876;12.300;2022-10-31T13:14:50;34.60;49.80
3727;DHT22;1879;45.876;12.300;2022-10-31T13:17:24;34.60;49.90
3727;DHT22;1879;45.876;12.300;2022-10-31T13:19:54;34.60;49.70
3727;DHT22;1879;45.876;12.300;2022-10-31T13:22:26;34.50;50.10
3727;DHT22;1879;45.876;12.300;2022-10-31T13:25:02;34.80;49.40
3727;DHT22;1879;45.876;12.300;2022-10-31T13:27:33;34.90;49.10
3727;DHT22;1879;45.876;12.300;2022-10-31T13:30:04;34.90;48.70
3727;DHT22;1879;45.876;12.300;2022-10-31T13:32:39;34.70;48.90
3727;DHT22;1879;45.876;12.300;2022-10-31T13:35:25;34.30;49.20
3727;DHT22;1879;45.876;12.300;2022-10-31T13:38:04;34.20;49.90
3727;DHT22;1879;45.876;12.300;2022-10-31T13:40:39;34.10;50.00
3727;DHT22;1879;45.876;12.300;2022-10-31T13:43:16;33.40;49.80
3727;DHT22;1879;45.876;12.300;2022-10-31T13:45:50;32.70;49.80
3727;DHT22;1879;45.876;12.300;2022-10-31T13:48:35;32.80;50.80
3727;DHT22;1879;45.876;12.300;2022-10-31T13:51:04;32.60;52.30
3727;DHT22;1879;45.876;12.300;2022-10-31T13:53:38;32.10;52.20
3727;DHT22;1879;45.876;12.300;2022-10-31T13:56:18;31.70;52.50
3727;DHT22;1879;45.876;12.300;2022-10-31T13:59:21;31.20;53.20
3727;DHT22;1879;45.876;12.300;2022-10-31T14:01:51;30.50;54.60
3727;DHT22;1879;45.876;12.300;2022-10-31T15:00:19;25.70;71.00
3727;DHT22;1879;45.876;12.300;2022-10-31T15:02:55;25.40;72.70
3727;DHT22;1879;45.876;12.300;2022-10-31T15:05:25;25.30;74.50
3727;DHT22;1879;45.876;12.300;2022-10-31T15:07:53;25.10;75.00
3727;DHT22;1879;45.876;12.300;2022-10-31T15:10:23;24.90;75.80
3727;DHT22;1879;45.876;12.300;2022-10-31T15:12:52;24.80;77.00
3727;DHT22;1879;45.876;12.300;2022-10-31T15:15:21;24.70;78.10
3727;DHT22;1879;45.876;12.300;2022-10-31T15:17:49;24.60;79.20
3727;DHT22;1879;45.876;12.300;2022-10-31T15:20:19;24.50;80.30
3727;DHT22;1879;45.876;12.300;2022-10-31T15:22:48;24.40;81.90
3727;DHT22;1879;45.876;12.300;2022-10-31T15:25:18;24.30;83.00
3727;DHT22;1879;45.876;12.300;2022-10-31T15:27:47;24.10;84.70
3727;DHT22;1879;45.876;12.300;2022-10-31T15:30:19;24.00;85.50
3727;DHT22;1879;45.876;12.300;2022-10-31T15:32:47;23.90;87.20
3727;DHT22;1879;45.876;12.300;2022-10-31T15:35:25;23.80;88.30
3727;DHT22;1879;45.876;12.300;2022-10-31T15:37:53;23.60;90.30
3727;DHT22;1879;45.876;12.300;2022-10-31T15:40:22;23.50;90.80
3727;DHT22;1879;45.876;12.300;2022-10-31T15:42:51;23.30;91.80
3727;DHT22;1879;45.876;12.300;2022-10-31T15:45:22;23.10;92.80
3727;DHT22;1879;45.876;12.300;2022-10-31T15:47:55;23.00;94.00
3727;DHT22;1879;45.876;12.300;2022-10-31T15:50:27;22.80;95.40
3727;DHT22;1879;45.876;12.300;2022-10-31T15:52:55;22.60;96.20
3727;DHT22;1879;45.876;12.300;2022-10-31T15:55:24;22.50;97.10
3727;DHT22;1879;45.876;12.300;2022-10-31T15:57:55;22.30;98.30
3727;DHT22;1879;45.876;12.300;2022-10-31T16:00:27;22.20;99.20
3727;DHT22;1879;45.876;12.300;2022-10-31T16:03:05;22.10;99.90
3727;DHT22;1879;45.876;12.300;2022-10-31T16:05:37;22.00;99.90
3727;DHT22;1879;45.876;12.300;2022-10-31T16:08:22;21.90;99.90
3727;DHT22;1879;45.876;12.300;2022-10-31T16:10:49;21.80;99.90
3727;DHT22;1879;45.876;12.300;2022-10-31T16:13:17;21.70;99.90
3727;DHT22;1879;45.876;12.300;2022-10-31T16:15:55;21.50;99.90
3727;DHT22;1879;45.876;12.300;2022-10-31T16:18:23;21.40;99.90
3727;DHT22;1879;45.876;12.300;2022-10-31T16:20:52;21.20;99.90
3727;DHT22;1879;45.876;12.300;2022-10-31T16:23:21;21.20;99.90
3727;DHT22;1879;45.876;12.300;2022-10-31T16:25:50;21.10;99.90
3727;DHT22;1879;45.876;12.300;2022-10-31T16:28:20;21.00;99.90
3727;DHT22;1879;45.876;12.300;2022-10-31T16:30:50;20.90;99.90
3727;DHT22;1879;45.876;12.300;2022-10-31T16:33:24;20.80;99.90
3727;DHT22;1879;45.876;12.300;2022-10-31T16:35:51;20.80;99.90
3727;DHT22;1879;45.876;12.300;2022-10-31T16:38:19;20.70;99.90
3727;DHT22;1879;45.876;12.300;2022-10-31T16:40:46;20.60;99.90
3727;DHT22;1879;45.876;12.300;2022-10-31T16:43:14;20.60;99.90
3727;DHT22;1879;45.876;12.300;2022-10-31T16:45:44;20.50;99.90
3727;DHT22;1879;45.876;12.300;2022-10-31T16:48:14;20.50;99.90
3727;DHT22;1879;45.876;12.300;2022-10-31T16:50:42;20.40;99.90
3727;DHT22;1879;45.876;12.300;2022-10-31T16:53:10;20.40;99.90
3727;DHT22;1879;45.876;12.300;2022-10-31T16:55:42;20.30;99.90
3727;DHT22;1879;45.876;12.300;2022-10-31T16:58:15;20.20;99.90
3727;DHT22;1879;45.876;12.300;2022-10-31T17:00:43;20.20;99.90
3727;DHT22;1879;45.876;12.300;2022-10-31T17:03:12;20.10;99.90
3727;DHT22;1879;45.876;12.300;2022-10-31T17:05:39;20.00;99.90
3727;DHT22;1879;45.876;12.300;2022-10-31T17:08:06;19.90;99.90
3727;DHT22;1879;45.876;12.300;2022-10-31T17:10:34;19.80;99.90
3727;DHT22;1879;45.876;12.300;2022-10-31T17:13:02;19.80;99.90
3727;DHT22;1879;45.876;12.300;2022-10-31T17:15:38;19.70;99.90